sensor_id;sensor_type;location;lat;lon;timestamp;P1;durP1;ratioP1;P2;durP2;ratioP2
21729;SDS011;11027;51.030;13.812;2023-11-21T00:01:34;0.80;;;0.77;;
21729;SDS011;11027;51.030;13.812;2023-11-21T00:03:59;3.10;;;1.10;;
21729;SDS011;11027;51.030;13.812;2023-11-21T00:06:26;2.55;;;0.70;;
21729;SDS011;11027;51.030;13.812;2023-11-21T00:08:51;1.85;;;0.98;;
21729;SDS011;11027;51.030;13.812;2023-11-21T00:11:17;1.98;;;1.10;;
21729;SDS011;11027;51.030;13.812;2023-11-21T00:13:42;3.10;;;1.05;;
21729;SDS011;11027;51.030;13.812;2023-11-21T00:16:07;2.42;;;1.42;;
21729;SDS011;11027;51.030;13.812;2023-11-21T00:18:33;4.35;;;0.93;;
21729;SDS011;11027;51.030;13.812;2023-11-21T00:20:58;1.90;;;0.77;;
21729;SDS011;11027;51.030;13.812;2023-11-21T00:23:24;2.55;;;0.90;;
21729;SDS011;11027;51.030;13.812;2023-11-21T00:25:49;0.88;;;0.70;;
21729;SDS011;11027;51.030;13.812;2023-11-21T00:28:14;1.42;;;1.10;;
21729;SDS011;11027;51.030;13.812;2023-11-21T00:30:40;1.70;;;0.77;;
21729;SDS011;11027;51.030;13.812;2023-11-21T00:33:05;3.25;;;0.90;;
21729;SDS011;11027;51.030;13.812;2023-11-21T00:35:30;2.88;;;1.20;;
21729;SDS011;11027;51.030;13.812;2023-11-21T00:37:56;2.05;;;1.00;;
21729;SDS011;11027;51.030;13.812;2023-11-21T00:40:22;2.55;;;1.00;;
21729;SDS011;11027;51.030;13.812;2023-11-21T00:42:47;3.25;;;1.10;;
21729;SDS011;11027;51.030;13.812;2023-11-21T00:45:13;2.47;;;1.42;;
21729;SDS011;11027;51.030;13.812;2023-11-21T00:47:38;2.53;;;0.98;;
21729;SDS011;11027;51.030;13.812;2023-11-21T00:50:04;1.65;;;0.98;;
21729;SDS011;11027;51.030;13.812;2023-11-21T00:52:31;3.90;;;1.42;;
21729;SDS011;11027;51.030;13.812;2023-11-21T00:54:57;2.72;;;0.90;;
21729;SDS011;11027;51.030;13.812;2023-11-21T00:57:24;2.45;;;1.15;;
21729;SDS011;11027;51.030;13.812;2023-11-21T00:59:49;3.40;;;0.85;;
21729;SDS011;11027;51.030;13.812;2023-11-21T01:02:15;4.80;;;1.17;;
21729;SDS011;11027;51.030;13.812;2023-11-21T01:04:40;2.55;;;1.05;;
21729;SDS011;11027;51.030;13.812;2023-11-21T01:07:05;1.98;;;1.05;;
21729;SDS011;11027;51.030;13.812;2023-11-21T01:09:31;1.30;;;0.80;;
21729;SDS011;11027;51.030;13.812;2023-11-21T01:11:56;2.67;;;1.20;;
21729;SDS011;11027;51.030;13.812;2023-11-21T01:14:22;6.10;;;1.25;;
21729;SDS011;11027;51.030;13.812;2023-11-21T01:16:47;1.92;;;0.90;;
21729;SDS011;11027;51.030;13.812;2023-11-21T01:19:13;3.60;;;1.10;;
21729;SDS011;11027;51.030;13.812;2023-11-21T01:21:39;4.60;;;1.13;;
21729;SDS011;11027;51.030;13.812;2023-11-21T01:24:04;1.63;;;0.80;;
21729;SDS011;11027;51.030;13.812;2023-11-21T01:26:32;1.95;;;0.90;;
21729;SDS011;11027;51.030;13.812;2023-11-21T01:28:57;1.05;;;0.90;;
21729;SDS011;11027;51.030;13.812;2023-11-21T01:31:23;2.67;;;1.02;;
21729;SDS011;11027;51.030;13.812;2023-11-21T01:33:48;2.88;;;1.25;;
21729;SDS011;11027;51.030;13.812;2023-11-21T01:36:13;2.05;;;1.13;;
21729;SDS011;11027;51.030;13.812;2023-11-21T01:38:39;1.48;;;1.00;;
21729;SDS011;11027;51.030;13.812;2023-11-21T01:41:04;4.97;;;1.10;;
21729;SDS011;11027;51.030;13.812;2023-11-21T01:43:31;2.75;;;1.38;;
21729;SDS011;11027;51.030;13.812;2023-11-21T01:45:57;6.70;;;1.20;;
21729;SDS011;11027;51.030;13.812;2023-11-21T01:48:23;2.97;;;1.17;;
21729;SDS011;11027;51.030;13.812;2023-11-21T01:50:49;3.25;;;1.33;;
21729;SDS011;11027;51.030;13.812;2023-11-21T01:53:15;3.72;;;1.30;;
21729;SDS011;11027;51.030;13.812;2023-11-21T01:55:41;2.47;;;1.20;;
21729;SDS011;11027;51.030;13.812;2023-11-21T01:58:07;3.10;;;1.25;;
21729;SDS011;11027;51.030;13.812;2023-11-21T02:00:33;5.95;;;1.30;;
21729;SDS011;11027;51.030;13.812;2023-11-21T02:02:59;2.85;;;1.10;;
21729;SDS011;11027;51.030;13.812;2023-11-21T02:05:24;3.33;;;1.00;;
21729;SDS011;11027;51.030;13.812;2023-11-21T02:07:50;3.75;;;1.10;;
21729;SDS011;11027;51.030;13.812;2023-11-21T02:10:17;2.72;;;1.23;;
21729;SDS011;11027;51.030;13.812;2023-11-21T02:12:47;2.70;;;1.08;;
21729;SDS011;11027;51.030;13.812;2023-11-21T02:15:14;2.08;;;1.00;;
21729;SDS011;11027;51.030;13.812;2023-11-21T02:17:45;1.73;;;1.07;;
21729;SDS011;11027;51.030;13.812;2023-11-21T02:20:12;4.22;;;1.38;;
21729;SDS011;11027;51.030;13.812;2023-11-21T02:22:41;3.30;;;1.13;;
21729;SDS011;11027;51.030;13.812;2023-11-21T02:25:07;4.55;;;1.40;;
21729;SDS011;11027;51.030;13.812;2023-11-21T02:27:33;3.50;;;1.38;;
21729;SDS011;11027;51.030;13.812;2023-11-21T02:29:58;3.58;;;1.20;;
21729;SDS011;11027;51.030;13.812;2023-11-21T02:32:24;5.65;;;1.70;;
21729;SDS011;11027;51.030;13.812;2023-11-21T02:34:51;2.88;;;1.27;;
21729;SDS011;11027;51.030;13.812;2023-11-21T02:37:16;1.80;;;1.05;;
21729;SDS011;11027;51.030;13.812;2023-11-21T02:39:41;2.67;;;1.13;;
21729;SDS011;11027;51.030;13.812;2023-11-21T02:42:07;3.10;;;1.13;;
21729;SDS011;11027;51.030;13.812;2023-11-21T02:44:32;3.55;;;1.17;;
21729;SDS011;11027;51.030;13.812;2023-11-21T02:46:57;6.28;;;1.30;;
21729;SDS011;11027;51.030;13.812;2023-11-21T02:49:22;3.95;;;1.00;;
21729;SDS011;11027;51.030;13.812;2023-11-21T02:51:48;5.40;;;1.10;;
21729;SDS011;11027;51.030;13.812;2023-11-21T02:54:13;3.50;;;1.20;;
21729;SDS011;11027;51.030;13.812;2023-11-21T02:56:39;4.13;;;1.13;;
21729;SDS011;11027;51.030;13.812;2023-11-21T02:59:05;3.13;;;1.15;;
21729;SDS011;11027;51.030;13.812;2023-11-21T03:01:30;3.42;;;1.10;;
21729;SDS011;11027;51.030;13.812;2023-11-21T03:03:56;3.45;;;1.27;;
21729;SDS011;11027;51.030;13.812;2023-11-21T03:06:21;2.42;;;1.20;;
21729;SDS011;11027;51.030;13.812;2023-11-21T03:08:47;4.22;;;1.30;;
21729;SDS011;11027;51.030;13.812;2023-11-21T03:11:13;7.97;;;1.30;;
21729;SDS011;11027;51.030;13.812;2023-11-21T03:13:42;4.40;;;1.50;;
21729;SDS011;11027;51.030;13.812;2023-11-21T03:16:10;2.88;;;1.23;;
21729;SDS011;11027;51.030;13.812;2023-11-21T03:18:37;3.25;;;1.10;;
21729;SDS011;11027;51.030;13.812;2023-11-21T03:21:06;3.72;;;1.20;;
21729;SDS011;11027;51.030;13.812;2023-11-21T03:23:35;2.95;;;1.33;;
21729;SDS011;11027;51.030;13.812;2023-11-21T03:26:01;4.35;;;1.30;;
21729;SDS011;11027;51.030;13.812;2023-11-21T03:28:27;2.80;;;1.30;;
21729;SDS011;11027;51.030;13.812;2023-11-21T03:30:53;5.18;;;1.50;;
21729;SDS011;11027;51.030;13.812;2023-11-21T03:33:19;3.65;;;1.23;;
21729;SDS011;11027;51.030;13.812;2023-11-21T03:35:44;4.00;;;1.20;;
21729;SDS011;11027;51.030;13.812;2023-11-21T03:38:09;3.50;;;1.50;;
21729;SDS011;11027;51.030;13.812;2023-11-21T03:40:35;4.22;;;1.38;;
21729;SDS011;11027;51.030;13.812;2023-11-21T03:43:00;4.53;;;1.50;;
21729;SDS011;11027;51.030;13.812;2023-11-21T03:45:26;3.95;;;1.38;;
21729;SDS011;11027;51.030;13.812;2023-11-21T03:47:51;5.93;;;1.40;;
21729;SDS011;11027;51.030;13.812;2023-11-21T03:50:16;7.00;;;1.25;;
21729;SDS011;11027;51.030;13.812;2023-11-21T03:52:41;5.03;;;1.23;;
21729;SDS011;11027;51.030;13.812;2023-11-21T03:55:07;4.32;;;1.67;;
21729;SDS011;11027;51.030;13.812;2023-11-21T03:57:33;4.13;;;1.55;;
21729;SDS011;11027;51.030;13.812;2023-11-21T03:59:58;3.53;;;1.48;;
21729;SDS011;11027;51.030;13.812;2023-11-21T04:02:23;4.82;;;1.50;;
21729;SDS011;11027;51.030;13.812;2023-11-21T04:04:50;4.80;;;1.50;;
21729;SDS011;11027;51.030;13.812;2023-11-21T04:07:16;5.28;;;1.63;;
21729;SDS011;11027;51.030;13.812;2023-11-21T04:09:42;8.68;;;1.70;;
21729;SDS011;11027;51.030;13.812;2023-11-21T04:12:07;4.72;;;1.40;;
21729;SDS011;11027;51.030;13.812;2023-11-21T04:14:34;6.10;;;1.70;;
21729;SDS011;11027;51.030;13.812;2023-11-21T04:16:59;4.43;;;1.30;;
21729;SDS011;11027;51.030;13.812;2023-11-21T04:19:25;3.33;;;1.45;;
21729;SDS011;11027;51.030;13.812;2023-11-21T04:21:50;2.85;;;1.40;;
21729;SDS011;11027;51.030;13.812;2023-11-21T04:24:16;3.67;;;1.35;;
21729;SDS011;11027;51.030;13.812;2023-11-21T04:26:41;5.32;;;1.77;;
21729;SDS011;11027;51.030;13.812;2023-11-21T04:29:06;7.80;;;1.85;;
21729;SDS011;11027;51.030;13.812;2023-11-21T04:31:32;5.63;;;1.60;;
21729;SDS011;11027;51.030;13.812;2023-11-21T04:33:57;4.93;;;1.77;;
21729;SDS011;11027;51.030;13.812;2023-11-21T04:36:22;4.93;;;1.70;;
21729;SDS011;11027;51.030;13.812;2023-11-21T04:38:48;7.18;;;1.80;;
21729;SDS011;11027;51.030;13.812;2023-11-21T04:41:13;5.88;;;1.40;;
21729;SDS011;11027;51.030;13.812;2023-11-21T04:43:38;3.63;;;1.42;;
21729;SDS011;11027;51.030;13.812;2023-11-21T04:46:04;4.07;;;1.73;;
21729;SDS011;11027;51.030;13.812;2023-11-21T04:48:29;2.67;;;1.52;;
21729;SDS011;11027;51.030;13.812;2023-11-21T04:50:54;5.40;;;1.67;;
21729;SDS011;11027;51.030;13.812;2023-11-21T04:53:19;5.90;;;1.77;;
21729;SDS011;11027;51.030;13.812;2023-11-21T04:55:45;6.63;;;2.00;;
21729;SDS011;11027;51.030;13.812;2023-11-21T04:58:10;4.72;;;1.92;;
21729;SDS011;11027;51.030;13.812;2023-11-21T05:00:37;5.95;;;1.70;;
21729;SDS011;11027;51.030;13.812;2023-11-21T05:03:02;5.35;;;1.58;;
21729;SDS011;11027;51.030;13.812;2023-11-21T05:05:29;4.28;;;1.55;;
21729;SDS011;11027;51.030;13.812;2023-11-21T05:07:58;3.42;;;1.65;;
21729;SDS011;11027;51.030;13.812;2023-11-21T05:10:24;7.38;;;1.75;;
21729;SDS011;11027;51.030;13.812;2023-11-21T05:12:49;5.53;;;1.95;;
21729;SDS011;11027;51.030;13.812;2023-11-21T05:15:15;5.05;;;1.80;;
21729;SDS011;11027;51.030;13.812;2023-11-21T05:17:42;4.22;;;2.05;;
21729;SDS011;11027;51.030;13.812;2023-11-21T05:20:09;7.90;;;2.03;;
21729;SDS011;11027;51.030;13.812;2023-11-21T05:22:35;4.15;;;1.90;;
21729;SDS011;11027;51.030;13.812;2023-11-21T05:25:01;4.35;;;2.15;;
21729;SDS011;11027;51.030;13.812;2023-11-21T05:27:28;6.90;;;2.13;;
21729;SDS011;11027;51.030;13.812;2023-11-21T05:29:54;4.70;;;2.10;;
21729;SDS011;11027;51.030;13.812;2023-11-21T05:32:20;7.10;;;2.08;;
21729;SDS011;11027;51.030;13.812;2023-11-21T05:34:45;7.43;;;2.05;;
21729;SDS011;11027;51.030;13.812;2023-11-21T05:37:10;5.90;;;2.22;;
21729;SDS011;11027;51.030;13.812;2023-11-21T05:39:36;5.20;;;2.17;;
21729;SDS011;11027;51.030;13.812;2023-11-21T05:42:01;10.23;;;2.63;;
21729;SDS011;11027;51.030;13.812;2023-11-21T05:44:26;8.63;;;2.67;;
21729;SDS011;11027;51.030;13.812;2023-11-21T05:46:52;8.60;;;2.38;;
21729;SDS011;11027;51.030;13.812;2023-11-21T05:49:17;8.93;;;2.30;;
21729;SDS011;11027;51.030;13.812;2023-11-21T05:51:42;4.72;;;2.10;;
21729;SDS011;11027;51.030;13.812;2023-11-21T05:54:08;6.78;;;2.08;;
21729;SDS011;11027;51.030;13.812;2023-11-21T05:56:33;5.82;;;2.10;;
21729;SDS011;11027;51.030;13.812;2023-11-21T05:58:59;7.68;;;2.20;;
21729;SDS011;11027;51.030;13.812;2023-11-21T06:01:25;8.10;;;1.90;;
21729;SDS011;11027;51.030;13.812;2023-11-21T06:03:53;3.95;;;2.30;;
21729;SDS011;11027;51.030;13.812;2023-11-21T06:06:19;8.07;;;2.00;;
21729;SDS011;11027;51.030;13.812;2023-11-21T06:08:47;6.50;;;1.70;;
21729;SDS011;11027;51.030;13.812;2023-11-21T06:11:12;5.95;;;2.17;;
21729;SDS011;11027;51.030;13.812;2023-11-21T06:13:39;9.80;;;3.35;;
21729;SDS011;11027;51.030;13.812;2023-11-21T06:16:04;8.85;;;3.72;;
21729;SDS011;11027;51.030;13.812;2023-11-21T06:18:30;6.50;;;3.30;;
21729;SDS011;11027;51.030;13.812;2023-11-21T06:20:55;7.38;;;2.70;;
21729;SDS011;11027;51.030;13.812;2023-11-21T06:23:20;4.85;;;2.45;;
21729;SDS011;11027;51.030;13.812;2023-11-21T06:25:45;4.78;;;2.60;;
21729;SDS011;11027;51.030;13.812;2023-11-21T06:28:10;4.55;;;2.45;;
21729;SDS011;11027;51.030;13.812;2023-11-21T06:30:36;5.88;;;2.63;;
21729;SDS011;11027;51.030;13.812;2023-11-21T06:33:01;9.90;;;2.80;;
21729;SDS011;11027;51.030;13.812;2023-11-21T06:35:27;6.47;;;2.80;;
21729;SDS011;11027;51.030;13.812;2023-11-21T06:37:55;8.15;;;2.95;;
21729;SDS011;11027;51.030;13.812;2023-11-21T06:40:20;11.60;;;3.05;;
21729;SDS011;11027;51.030;13.812;2023-11-21T06:42:45;9.80;;;3.00;;
21729;SDS011;11027;51.030;13.812;2023-11-21T06:45:12;8.07;;;3.00;;
21729;SDS011;11027;51.030;13.812;2023-11-21T06:47:37;8.27;;;3.00;;
21729;SDS011;11027;51.030;13.812;2023-11-21T06:50:03;8.77;;;2.75;;
21729;SDS011;11027;51.030;13.812;2023-11-21T06:52:28;12.10;;;3.38;;
21729;SDS011;11027;51.030;13.812;2023-11-21T06:54:54;8.77;;;3.17;;
21729;SDS011;11027;51.030;13.812;2023-11-21T06:57:19;8.45;;;3.25;;
21729;SDS011;11027;51.030;13.812;2023-11-21T06:59:45;6.85;;;2.85;;
21729;SDS011;11027;51.030;13.812;2023-11-21T07:02:10;6.85;;;3.10;;
21729;SDS011;11027;51.030;13.812;2023-11-21T07:04:36;8.80;;;3.50;;
21729;SDS011;11027;51.030;13.812;2023-11-21T07:07:04;9.48;;;3.30;;
21729;SDS011;11027;51.030;13.812;2023-11-21T07:09:31;7.00;;;3.22;;
21729;SDS011;11027;51.030;13.812;2023-11-21T07:11:57;11.30;;;3.55;;
21729;SDS011;11027;51.030;13.812;2023-11-21T07:14:22;11.70;;;3.88;;
21729;SDS011;11027;51.030;13.812;2023-11-21T07:16:48;8.20;;;3.47;;
21729;SDS011;11027;51.030;13.812;2023-11-21T07:19:13;11.93;;;3.80;;
21729;SDS011;11027;51.030;13.812;2023-11-21T07:21:39;6.20;;;3.42;;
21729;SDS011;11027;51.030;13.812;2023-11-21T07:24:05;9.60;;;3.70;;
21729;SDS011;11027;51.030;13.812;2023-11-21T07:26:33;8.65;;;3.67;;
21729;SDS011;11027;51.030;13.812;2023-11-21T07:28:59;9.45;;;3.55;;
21729;SDS011;11027;51.030;13.812;2023-11-21T07:31:24;14.55;;;3.92;;
21729;SDS011;11027;51.030;13.812;2023-11-21T07:33:50;14.00;;;4.03;;
21729;SDS011;11027;51.030;13.812;2023-11-21T07:36:16;9.40;;;4.00;;
21729;SDS011;11027;51.030;13.812;2023-11-21T07:38:43;10.95;;;4.10;;
21729;SDS011;11027;51.030;13.812;2023-11-21T07:41:09;11.23;;;4.78;;
21729;SDS011;11027;51.030;13.812;2023-11-21T07:43:35;8.65;;;4.03;;
21729;SDS011;11027;51.030;13.812;2023-11-21T07:46:01;12.52;;;4.10;;
21729;SDS011;11027;51.030;13.812;2023-11-21T07:48:30;13.82;;;4.30;;
21729;SDS011;11027;51.030;13.812;2023-11-21T07:50:56;12.50;;;4.00;;
21729;SDS011;11027;51.030;13.812;2023-11-21T07:53:23;10.52;;;4.05;;
21729;SDS011;11027;51.030;13.812;2023-11-21T07:55:50;11.63;;;4.03;;
21729;SDS011;11027;51.030;13.812;2023-11-21T07:58:15;10.95;;;4.25;;
21729;SDS011;11027;51.030;13.812;2023-11-21T08:00:40;11.43;;;3.78;;
21729;SDS011;11027;51.030;13.812;2023-11-21T08:03:06;14.25;;;5.03;;
21729;SDS011;11027;51.030;13.812;2023-11-21T08:05:31;11.43;;;4.30;;
21729;SDS011;11027;51.030;13.812;2023-11-21T08:07:56;10.75;;;4.53;;
21729;SDS011;11027;51.030;13.812;2023-11-21T08:10:22;10.32;;;4.90;;
21729;SDS011;11027;51.030;13.812;2023-11-21T08:12:47;10.77;;;4.60;;
21729;SDS011;11027;51.030;13.812;2023-11-21T08:15:13;13.02;;;4.38;;
21729;SDS011;11027;51.030;13.812;2023-11-21T08:17:39;18.13;;;4.78;;
21729;SDS011;11027;51.030;13.812;2023-11-21T08:20:04;13.27;;;6.28;;
21729;SDS011;11027;51.030;13.812;2023-11-21T08:22:31;17.10;;;5.43;;
21729;SDS011;11027;51.030;13.812;2023-11-21T08:24:56;13.93;;;5.35;;
21729;SDS011;11027;51.030;13.812;2023-11-21T08:27:22;15.23;;;5.50;;
21729;SDS011;11027;51.030;13.812;2023-11-21T08:29:47;14.00;;;5.15;;
21729;SDS011;11027;51.030;13.812;2023-11-21T08:32:13;16.00;;;5.72;;
21729;SDS011;11027;51.030;13.812;2023-11-21T08:34:38;19.17;;;5.80;;
21729;SDS011;11027;51.030;13.812;2023-11-21T08:37:04;21.83;;;6.30;;
21729;SDS011;11027;51.030;13.812;2023-11-21T08:39:30;17.00;;;6.25;;
21729;SDS011;11027;51.030;13.812;2023-11-21T08:41:56;16.90;;;6.18;;
21729;SDS011;11027;51.030;13.812;2023-11-21T08:44:22;11.50;;;6.32;;
21729;SDS011;11027;51.030;13.812;2023-11-21T08:46:48;23.10;;;7.07;;
21729;SDS011;11027;51.030;13.812;2023-11-21T08:49:14;18.60;;;6.65;;
21729;SDS011;11027;51.030;13.812;2023-11-21T08:51:40;17.58;;;7.32;;
21729;SDS011;11027;51.030;13.812;2023-11-21T08:54:05;15.88;;;7.18;;
21729;SDS011;11027;51.030;13.812;2023-11-21T08:56:33;17.40;;;7.25;;
21729;SDS011;11027;51.030;13.812;2023-11-21T08:58:59;20.83;;;7.45;;
21729;SDS011;11027;51.030;13.812;2023-11-21T09:01:27;17.27;;;6.88;;
21729;SDS011;11027;51.030;13.812;2023-11-21T09:03:52;20.23;;;8.00;;
21729;SDS011;11027;51.030;13.812;2023-11-21T09:06:18;17.95;;;7.82;;
21729;SDS011;11027;51.030;13.812;2023-11-21T09:08:43;24.10;;;8.35;;
21729;SDS011;11027;51.030;13.812;2023-11-21T09:11:08;17.20;;;7.57;;
21729;SDS011;11027;51.030;13.812;2023-11-21T09:13:34;21.38;;;7.85;;
21729;SDS011;11027;51.030;13.812;2023-11-21T09:15:59;14.85;;;6.57;;
21729;SDS011;11027;51.030;13.812;2023-11-21T09:18:25;13.05;;;5.22;;
21729;SDS011;11027;51.030;13.812;2023-11-21T09:20:50;10.90;;;5.75;;
21729;SDS011;11027;51.030;13.812;2023-11-21T09:23:15;12.02;;;5.45;;
21729;SDS011;11027;51.030;13.812;2023-11-21T09:25:41;8.82;;;4.63;;
21729;SDS011;11027;51.030;13.812;2023-11-21T09:28:06;12.95;;;5.18;;
21729;SDS011;11027;51.030;13.812;2023-11-21T09:30:33;9.77;;;5.07;;
21729;SDS011;11027;51.030;13.812;2023-11-21T09:33:00;11.15;;;5.20;;
21729;SDS011;11027;51.030;13.812;2023-11-21T09:35:25;7.93;;;5.28;;
21729;SDS011;11027;51.030;13.812;2023-11-21T09:37:51;9.65;;;4.97;;
21729;SDS011;11027;51.030;13.812;2023-11-21T09:40:18;9.25;;;5.65;;
21729;SDS011;11027;51.030;13.812;2023-11-21T09:43:06;9.48;;;5.75;;
21729;SDS011;11027;51.030;13.812;2023-11-21T09:45:41;9.43;;;5.78;;
21729;SDS011;11027;51.030;13.812;2023-11-21T09:48:10;11.32;;;5.88;;
21729;SDS011;11027;51.030;13.812;2023-11-21T09:50:36;8.63;;;6.18;;
21729;SDS011;11027;51.030;13.812;2023-11-21T09:53:11;9.07;;;5.85;;
21729;SDS011;11027;51.030;13.812;2023-11-21T09:55:42;9.73;;;5.63;;
21729;SDS011;11027;51.030;13.812;2023-11-21T09:58:09;5.05;;;3.97;;
21729;SDS011;11027;51.030;13.812;2023-11-21T10:00:36;6.80;;;3.30;;
21729;SDS011;11027;51.030;13.812;2023-11-21T10:03:07;5.25;;;2.80;;
21729;SDS011;11027;51.030;13.812;2023-11-21T10:05:34;4.85;;;3.25;;
21729;SDS011;11027;51.030;13.812;2023-11-21T10:08:00;3.60;;;2.30;;
21729;SDS011;11027;51.030;13.812;2023-11-21T10:10:25;5.07;;;2.55;;
21729;SDS011;11027;51.030;13.812;2023-11-21T10:12:57;4.00;;;2.60;;
21729;SDS011;11027;51.030;13.812;2023-11-21T10:15:26;3.17;;;2.70;;
21729;SDS011;11027;51.030;13.812;2023-11-21T10:17:52;3.10;;;2.80;;
21729;SDS011;11027;51.030;13.812;2023-11-21T10:20:20;5.45;;;3.42;;
21729;SDS011;11027;51.030;13.812;2023-11-21T10:22:45;7.47;;;3.65;;
21729;SDS011;11027;51.030;13.812;2023-11-21T10:25:11;5.53;;;3.70;;
21729;SDS011;11027;51.030;13.812;2023-11-21T10:27:39;6.75;;;4.45;;
21729;SDS011;11027;51.030;13.812;2023-11-21T10:30:06;5.35;;;4.65;;
21729;SDS011;11027;51.030;13.812;2023-11-21T10:32:33;9.30;;;4.90;;
21729;SDS011;11027;51.030;13.812;2023-11-21T10:34:58;7.57;;;5.20;;
21729;SDS011;11027;51.030;13.812;2023-11-21T10:37:35;6.82;;;4.97;;
21729;SDS011;11027;51.030;13.812;2023-11-21T10:40:01;7.63;;;5.50;;
21729;SDS011;11027;51.030;13.812;2023-11-21T10:42:27;7.65;;;5.97;;
21729;SDS011;11027;51.030;13.812;2023-11-21T10:44:53;8.63;;;5.57;;
21729;SDS011;11027;51.030;13.812;2023-11-21T10:47:19;8.07;;;5.47;;
21729;SDS011;11027;51.030;13.812;2023-11-21T10:49:45;7.75;;;6.03;;
21729;SDS011;11027;51.030;13.812;2023-11-21T10:52:13;6.95;;;5.82;;
21729;SDS011;11027;51.030;13.812;2023-11-21T10:54:42;6.28;;;4.80;;
21729;SDS011;11027;51.030;13.812;2023-11-21T10:57:08;6.05;;;4.78;;
21729;SDS011;11027;51.030;13.812;2023-11-21T10:59:35;7.30;;;5.15;;
21729;SDS011;11027;51.030;13.812;2023-11-21T11:02:02;8.10;;;5.78;;
21729;SDS011;11027;51.030;13.812;2023-11-21T11:04:46;10.98;;;5.97;;
21729;SDS011;11027;51.030;13.812;2023-11-21T11:07:13;9.38;;;6.47;;
21729;SDS011;11027;51.030;13.812;2023-11-21T11:09:41;10.38;;;6.70;;
21729;SDS011;11027;51.030;13.812;2023-11-21T11:12:07;9.68;;;6.38;;
21729;SDS011;11027;51.030;13.812;2023-11-21T11:14:34;9.07;;;6.20;;
21729;SDS011;11027;51.030;13.812;2023-11-21T11:17:00;10.65;;;6.07;;
21729;SDS011;11027;51.030;13.812;2023-11-21T11:19:27;9.40;;;5.38;;
21729;SDS011;11027;51.030;13.812;2023-11-21T11:25:11;8.48;;;5.13;;
21729;SDS011;11027;51.030;13.812;2023-11-21T11:30:41;6.40;;;4.20;;
21729;SDS011;11027;51.030;13.812;2023-11-21T11:36:06;6.00;;;4.35;;
21729;SDS011;11027;51.030;13.812;2023-11-21T11:38:38;6.88;;;3.80;;
21729;SDS011;11027;51.030;13.812;2023-11-21T11:41:04;7.03;;;3.83;;
21729;SDS011;11027;51.030;13.812;2023-11-21T11:43:30;5.72;;;4.30;;
21729;SDS011;11027;51.030;13.812;2023-11-21T11:46:09;6.55;;;4.20;;
21729;SDS011;11027;51.030;13.812;2023-11-21T11:48:37;7.53;;;4.80;;
21729;SDS011;11027;51.030;13.812;2023-11-21T11:51:05;6.35;;;4.30;;
21729;SDS011;11027;51.030;13.812;2023-11-21T11:53:39;5.68;;;4.75;;
21729;SDS011;11027;51.030;13.812;2023-11-21T11:56:26;6.18;;;4.85;;
21729;SDS011;11027;51.030;13.812;2023-11-21T11:58:55;7.30;;;4.90;;
21729;SDS011;11027;51.030;13.812;2023-11-21T12:01:22;6.70;;;4.70;;
21729;SDS011;11027;51.030;13.812;2023-11-21T12:06:42;8.43;;;5.15;;
21729;SDS011;11027;51.030;13.812;2023-11-21T12:09:12;7.28;;;5.00;;
21729;SDS011;11027;51.030;13.812;2023-11-21T12:11:43;8.45;;;4.95;;
21729;SDS011;11027;51.030;13.812;2023-11-21T12:14:09;5.80;;;4.72;;
21729;SDS011;11027;51.030;13.812;2023-11-21T12:16:34;9.40;;;5.13;;
21729;SDS011;11027;51.030;13.812;2023-11-21T12:19:00;6.07;;;4.82;;
21729;SDS011;11027;51.030;13.812;2023-11-21T12:21:25;8.13;;;4.95;;
21729;SDS011;11027;51.030;13.812;2023-11-21T12:23:51;7.95;;;5.82;;
21729;SDS011;11027;51.030;13.812;2023-11-21T12:26:16;10.18;;;6.55;;
21729;SDS011;11027;51.030;13.812;2023-11-21T12:28:42;7.68;;;5.32;;
21729;SDS011;11027;51.030;13.812;2023-11-21T12:31:08;7.25;;;5.30;;
21729;SDS011;11027;51.030;13.812;2023-11-21T12:33:34;8.23;;;5.25;;
21729;SDS011;11027;51.030;13.812;2023-11-21T12:36:00;7.25;;;5.18;;
21729;SDS011;11027;51.030;13.812;2023-11-21T12:38:25;7.80;;;6.10;;
21729;SDS011;11027;51.030;13.812;2023-11-21T12:40:59;11.63;;;4.97;;
21729;SDS011;11027;51.030;13.812;2023-11-21T12:43:25;6.15;;;4.93;;
21729;SDS011;11027;51.030;13.812;2023-11-21T12:45:50;7.47;;;5.10;;
21729;SDS011;11027;51.030;13.812;2023-11-21T12:48:17;6.32;;;5.20;;
21729;SDS011;11027;51.030;13.812;2023-11-21T12:50:49;7.72;;;5.93;;
21729;SDS011;11027;51.030;13.812;2023-11-21T12:53:18;8.55;;;5.95;;
21729;SDS011;11027;51.030;13.812;2023-11-21T12:55:43;8.02;;;6.20;;
21729;SDS011;11027;51.030;13.812;2023-11-21T12:58:15;6.18;;;5.50;;
21729;SDS011;11027;51.030;13.812;2023-11-21T13:00:44;6.65;;;5.60;;
21729;SDS011;11027;51.030;13.812;2023-11-21T13:03:12;7.10;;;6.10;;
21729;SDS011;11027;51.030;13.812;2023-11-21T13:05:41;7.65;;;5.32;;
21729;SDS011;11027;51.030;13.812;2023-11-21T13:08:09;9.35;;;6.40;;
21729;SDS011;11027;51.030;13.812;2023-11-21T13:10:38;10.00;;;6.43;;
21729;SDS011;11027;51.030;13.812;2023-11-21T13:13:06;7.95;;;6.10;;
21729;SDS011;11027;51.030;13.812;2023-11-21T13:15:34;8.13;;;6.40;;
21729;SDS011;11027;51.030;13.812;2023-11-21T13:18:01;8.57;;;6.57;;
21729;SDS011;11027;51.030;13.812;2023-11-21T13:20:27;9.60;;;6.75;;
21729;SDS011;11027;51.030;13.812;2023-11-21T13:22:56;9.80;;;7.68;;
21729;SDS011;11027;51.030;13.812;2023-11-21T13:25:24;8.95;;;7.53;;
21729;SDS011;11027;51.030;13.812;2023-11-21T13:27:52;8.50;;;7.28;;
21729;SDS011;11027;51.030;13.812;2023-11-21T13:30:21;9.82;;;7.60;;
21729;SDS011;11027;51.030;13.812;2023-11-21T13:32:51;10.38;;;7.72;;
21729;SDS011;11027;51.030;13.812;2023-11-21T13:35:18;9.80;;;7.13;;
21729;SDS011;11027;51.030;13.812;2023-11-21T13:37:49;7.57;;;5.80;;
21729;SDS011;11027;51.030;13.812;2023-11-21T13:42:50;7.32;;;5.63;;
21729;SDS011;11027;51.030;13.812;2023-11-21T13:45:18;7.90;;;5.72;;
21729;SDS011;11027;51.030;13.812;2023-11-21T13:47:45;10.63;;;7.13;;
21729;SDS011;11027;51.030;13.812;2023-11-21T13:50:10;11.10;;;7.05;;
21729;SDS011;11027;51.030;13.812;2023-11-21T13:52:42;8.60;;;6.72;;
21729;SDS011;11027;51.030;13.812;2023-11-21T13:55:10;11.02;;;7.20;;
21729;SDS011;11027;51.030;13.812;2023-11-21T13:57:40;10.10;;;7.38;;
21729;SDS011;11027;51.030;13.812;2023-11-21T14:00:10;14.65;;;7.80;;
21729;SDS011;11027;51.030;13.812;2023-11-21T14:02:56;11.98;;;7.65;;
21729;SDS011;11027;51.030;13.812;2023-11-21T14:05:25;11.68;;;8.25;;
21729;SDS011;11027;51.030;13.812;2023-11-21T14:07:54;14.52;;;9.23;;
21729;SDS011;11027;51.030;13.812;2023-11-21T14:10:21;17.38;;;10.15;;
21729;SDS011;11027;51.030;13.812;2023-11-21T14:12:49;13.18;;;8.40;;
21729;SDS011;11027;51.030;13.812;2023-11-21T14:15:14;13.82;;;7.90;;
21729;SDS011;11027;51.030;13.812;2023-11-21T14:17:43;14.20;;;8.18;;
21729;SDS011;11027;51.030;13.812;2023-11-21T14:20:09;14.00;;;7.90;;
21729;SDS011;11027;51.030;13.812;2023-11-21T14:22:41;13.60;;;7.97;;
21729;SDS011;11027;51.030;13.812;2023-11-21T14:25:06;13.82;;;7.28;;
21729;SDS011;11027;51.030;13.812;2023-11-21T14:27:32;12.50;;;7.28;;
21729;SDS011;11027;51.030;13.812;2023-11-21T14:29:58;12.52;;;7.63;;
21729;SDS011;11027;51.030;13.812;2023-11-21T14:32:24;13.75;;;7.60;;
21729;SDS011;11027;51.030;13.812;2023-11-21T14:34:51;14.18;;;8.35;;
21729;SDS011;11027;51.030;13.812;2023-11-21T14:37:16;14.70;;;8.70;;
21729;SDS011;11027;51.030;13.812;2023-11-21T14:39:41;14.80;;;8.90;;
21729;SDS011;11027;51.030;13.812;2023-11-21T14:42:10;18.02;;;8.57;;